createdAt,value
2018-06-21T00:00:38.434Z,16.82
2018-06-21T00:03:06.176Z,16.77
2018-06-21T00:05:34.503Z,16.73
2018-06-21T00:08:01.962Z,16.73
2018-06-21T00:10:29.082Z,16.75
2018-06-21T00:12:56.588Z,16.80
2018-06-21T00:15:23.941Z,16.79
2018-06-21T00:17:51.906Z,16.76
2018-06-21T00:20:18.932Z,16.84
2018-06-21T00:22:46.129Z,16.90
2018-06-21T00:25:13.541Z,16.81
2018-06-21T00:27:40.787Z,16.90
2018-06-21T00:30:07.813Z,16.90
2018-06-21T00:32:35.050Z,16.96
2018-06-21T00:35:02.093Z,16.99
2018-06-21T00:37:29.216Z,17.03
2018-06-21T00:39:56.269Z,17.03
2018-06-21T00:42:23.306Z,17.04
2018-06-21T00:44:50.371Z,17.05
2018-06-21T00:47:17.407Z,17.08
2018-06-21T00:49:44.432Z,17.09
2018-06-21T00:52:11.475Z,17.07
2018-06-21T00:54:38.599Z,17.16
2018-06-21T00:57:05.644Z,17.17
2018-06-21T00:59:32.670Z,17.19
2018-06-21T01:01:59.735Z,17.29
2018-06-21T01:04:26.797Z,17.20
2018-06-21T01:06:53.866Z,17.22
2018-06-21T01:09:20.893Z,17.27
2018-06-21T01:11:47.924Z,17.29
2018-06-21T01:14:14.993Z,17.33
2018-06-21T01:16:42.037Z,17.27
2018-06-21T01:19:10.172Z,17.35
2018-06-21T01:21:37.217Z,17.35
2018-06-21T01:24:04.310Z,17.39
2018-06-21T01:26:31.360Z,17.35
2018-06-21T01:28:58.481Z,17.38
2018-06-21T01:31:25.512Z,17.42
2018-06-21T01:33:52.537Z,17.38
2018-06-21T01:36:19.611Z,17.34
2018-06-21T01:38:46.629Z,17.36
2018-06-21T01:41:13.676Z,17.35
2018-06-21T01:43:40.694Z,17.38
2018-06-21T01:46:07.729Z,17.37
2018-06-21T01:48:34.789Z,17.38
2018-06-21T01:51:01.827Z,17.40
2018-06-21T01:53:28.873Z,17.41
2018-06-21T01:55:55.907Z,17.33
2018-06-21T01:58:22.980Z,17.34
2018-06-21T02:00:49.996Z,17.37
2018-06-21T02:03:17.057Z,17.41
2018-06-21T02:05:44.080Z,17.46
2018-06-21T02:08:11.190Z,17.45
2018-06-21T02:10:38.118Z,17.46
2018-06-21T02:13:05.165Z,17.47
2018-06-21T02:15:32.156Z,17.46
2018-06-21T02:17:59.332Z,17.49
2018-06-21T02:20:26.364Z,17.46
2018-06-21T02:22:53.381Z,17.47
2018-06-21T02:25:20.436Z,17.47
2018-06-21T02:27:47.449Z,17.43
2018-06-21T02:30:14.502Z,17.42
2018-06-21T02:32:41.865Z,17.46
2018-06-21T02:35:08.906Z,17.42
2018-06-21T02:37:36.052Z,17.43
2018-06-21T02:40:03.121Z,17.46
2018-06-21T02:42:30.142Z,17.43
2018-06-21T02:44:57.172Z,17.44
2018-06-21T02:47:24.192Z,17.39
2018-06-21T02:49:51.214Z,17.35
2018-06-21T02:52:18.334Z,17.42
2018-06-21T02:54:45.405Z,17.44
2018-06-21T02:57:12.459Z,17.44
2018-06-21T02:59:39.490Z,17.46
2018-06-21T03:02:06.522Z,17.40
2018-06-21T03:04:33.516Z,17.38
2018-06-21T03:07:00.560Z,17.35
2018-06-21T03:09:27.579Z,17.30
2018-06-21T03:11:54.593Z,17.33
2018-06-21T03:14:21.604Z,17.30
2018-06-21T03:16:48.620Z,17.23
2018-06-21T03:19:15.702Z,17.10
2018-06-21T03:21:42.740Z,16.98
2018-06-21T03:24:09.765Z,16.88
2018-06-21T03:26:36.790Z,16.77
2018-06-21T03:29:03.802Z,16.64
2018-06-21T03:31:30.833Z,16.57
2018-06-21T03:33:57.876Z,16.50
2018-06-21T03:36:24.910Z,16.46
2018-06-21T03:38:51.945Z,16.45
2018-06-21T03:41:18.959Z,16.33
2018-06-21T03:43:45.967Z,16.29
2018-06-21T03:46:12.980Z,16.16
2018-06-21T03:48:40.009Z,16.11
2018-06-21T03:51:07.429Z,16.08
2018-06-21T03:53:34.461Z,16.01
2018-06-21T03:56:01.475Z,15.98
2018-06-21T03:58:28.519Z,15.78
2018-06-21T04:00:55.569Z,15.70
2018-06-21T04:03:22.694Z,15.64
2018-06-21T04:05:49.810Z,15.69
2018-06-21T04:08:16.862Z,15.68
2018-06-21T04:10:43.877Z,15.60
2018-06-21T04:13:10.924Z,15.54
2018-06-21T04:15:37.968Z,15.45
2018-06-21T04:18:05.017Z,15.36
2018-06-21T04:20:32.043Z,15.22
2018-06-21T04:22:59.066Z,15.23
2018-06-21T04:25:26.116Z,15.23
2018-06-21T04:27:53.144Z,15.33
2018-06-21T04:30:20.165Z,15.05
2018-06-21T04:32:47.189Z,15.12
2018-06-21T04:35:14.199Z,15.10
2018-06-21T04:37:41.235Z,15.08
2018-06-21T04:40:08.254Z,14.99
2018-06-21T04:42:35.304Z,15.03
2018-06-21T04:45:02.363Z,15.04
2018-06-21T04:47:29.402Z,14.82
2018-06-21T04:49:56.630Z,14.82
2018-06-21T04:52:23.730Z,14.68
2018-06-21T04:54:50.724Z,14.69
2018-06-21T04:57:17.751Z,14.74
2018-06-21T04:59:44.973Z,14.77
2018-06-21T05:02:11.998Z,14.69
2018-06-21T05:04:39.010Z,14.69
2018-06-21T05:07:06.093Z,14.63
2018-06-21T05:09:33.121Z,14.58
2018-06-21T05:12:00.141Z,14.59
2018-06-21T05:14:27.153Z,14.45
2018-06-21T05:16:54.204Z,14.39
2018-06-21T05:19:21.252Z,14.34
2018-06-21T05:21:48.257Z,14.27
2018-06-21T05:24:15.273Z,14.25
2018-06-21T05:26:42.304Z,14.20
2018-06-21T05:29:09.319Z,14.15
2018-06-21T05:31:36.324Z,14.09
2018-06-21T05:34:03.389Z,13.93
2018-06-21T05:36:30.416Z,13.86
2018-06-21T05:38:57.464Z,13.55
2018-06-21T05:41:24.512Z,13.55
2018-06-21T05:43:51.552Z,13.50
2018-06-21T05:46:18.685Z,13.49
2018-06-21T05:48:45.826Z,13.40
2018-06-21T05:51:12.838Z,13.38
2018-06-21T05:53:39.949Z,13.34
2018-06-21T05:56:06.989Z,13.26
2018-06-21T05:58:34.025Z,13.29
2018-06-21T06:01:01.036Z,13.27
2018-06-21T06:03:28.089Z,13.23
2018-06-21T06:05:55.118Z,13.28
2018-06-21T06:08:22.195Z,13.38
2018-06-21T06:10:49.169Z,13.37
2018-06-21T06:13:16.193Z,13.37
2018-06-21T06:15:43.231Z,13.47
2018-06-21T06:18:10.240Z,13.58
2018-06-21T06:20:37.276Z,13.54
2018-06-21T06:23:04.481Z,13.43
2018-06-21T06:25:31.493Z,13.54
2018-06-21T06:27:58.502Z,13.56
2018-06-21T06:30:25.670Z,13.53
2018-06-21T06:32:52.689Z,13.54
2018-06-21T06:35:19.706Z,13.52
2018-06-21T06:37:46.735Z,13.44
2018-06-21T06:40:13.857Z,13.33
2018-06-21T06:42:41.287Z,13.36
2018-06-21T06:45:08.402Z,13.39
2018-06-21T06:47:35.516Z,13.39
2018-06-21T06:50:02.554Z,13.35
2018-06-21T06:52:29.590Z,13.38
2018-06-21T06:54:56.986Z,13.34
2018-06-21T06:57:24.107Z,13.48
2018-06-21T06:59:51.121Z,13.52
2018-06-21T07:02:19.392Z,13.52
2018-06-21T07:04:47.553Z,13.41
2018-06-21T07:07:15.572Z,13.42
2018-06-21T07:09:43.491Z,13.50
2018-06-21T07:12:13.522Z,13.36
2018-06-21T07:14:41.641Z,13.32
2018-06-21T07:17:10.031Z,13.32
2018-06-21T07:19:39.278Z,13.31
2018-06-21T07:22:08.056Z,13.48
2018-06-21T07:24:36.000Z,13.54
2018-06-21T07:27:04.633Z,13.60
2018-06-21T07:29:32.499Z,13.73
2018-06-21T07:32:00.853Z,13.82
2018-06-21T07:34:28.976Z,14.12
2018-06-21T07:36:57.129Z,14.15
2018-06-21T07:39:24.650Z,14.37
2018-06-21T07:41:51.698Z,14.44
2018-06-21T07:44:19.659Z,14.25
2018-06-21T07:46:47.246Z,14.20
2018-06-21T07:49:15.178Z,14.32
2018-06-21T07:51:42.827Z,14.36
2018-06-21T07:54:09.957Z,14.19
2018-06-21T07:56:37.962Z,14.27
2018-06-21T07:59:06.009Z,14.36
2018-06-21T08:01:34.416Z,13.97
2018-06-21T08:04:02.709Z,14.05
2018-06-21T08:06:30.935Z,14.13
2018-06-21T08:08:59.588Z,13.94
2018-06-21T08:11:27.359Z,13.89
2018-06-21T08:13:55.492Z,14.08
2018-06-21T08:16:23.654Z,13.92
2018-06-21T08:18:52.116Z,13.93
2018-06-21T08:21:20.167Z,13.91
2018-06-21T08:23:48.055Z,13.73
2018-06-21T08:26:16.004Z,13.77
2018-06-21T08:28:43.845Z,13.82
2018-06-21T08:31:11.704Z,13.93
2018-06-21T08:33:39.623Z,13.85
2018-06-21T08:36:07.676Z,13.76
2018-06-21T08:38:35.709Z,13.91
2018-06-21T08:41:03.579Z,13.72
2018-06-21T08:43:31.306Z,13.83
2018-06-21T08:45:59.240Z,13.73
2018-06-21T08:48:26.294Z,13.88
2018-06-21T08:50:53.388Z,13.77
2018-06-21T08:53:20.631Z,13.90
2018-06-21T08:55:47.650Z,13.81
2018-06-21T08:58:14.873Z,13.74
2018-06-21T09:00:41.970Z,13.92
2018-06-21T09:03:09.161Z,13.96
2018-06-21T09:05:36.258Z,14.10
2018-06-21T09:08:03.365Z,13.93
2018-06-21T09:10:30.510Z,13.91
2018-06-21T09:12:57.522Z,13.83
2018-06-21T09:15:24.667Z,13.87
2018-06-21T09:17:51.757Z,14.05
2018-06-21T09:20:18.764Z,14.08
2018-06-21T09:22:45.773Z,13.95
2018-06-21T09:25:13.034Z,13.86
2018-06-21T09:27:40.149Z,14.22
2018-06-21T09:30:07.169Z,14.10
2018-06-21T09:32:34.209Z,13.90
2018-06-21T09:35:01.213Z,13.78
2018-06-21T09:37:33.868Z,13.79
2018-06-21T09:41:09.489Z,13.72
2018-06-21T09:43:50.301Z,13.70
2018-06-21T09:46:15.384Z,13.73
2018-06-21T09:48:48.454Z,13.68
2018-06-21T09:51:15.555Z,13.63
2018-06-21T09:53:42.672Z,13.66
2018-06-21T09:56:09.706Z,13.62
2018-06-21T09:58:36.718Z,13.62
2018-06-21T10:01:03.960Z,14.03
2018-06-21T10:03:31.851Z,14.49
2018-06-21T10:05:59.044Z,14.44
2018-06-21T10:08:26.193Z,14.39
2018-06-21T10:10:53.222Z,14.36
2018-06-21T10:13:20.519Z,14.21
2018-06-21T10:15:47.563Z,13.90
2018-06-21T10:18:14.681Z,13.54
2018-06-21T10:20:42.081Z,11.64
2018-06-21T10:23:09.094Z,10.60
2018-06-21T10:25:36.119Z,10.37
2018-06-21T10:28:03.150Z,10.17
2018-06-21T10:30:30.169Z,10.10
2018-06-21T10:32:58.025Z,10.10
2018-06-21T10:35:25.037Z,10.10
2018-06-21T10:37:52.077Z,10.11
2018-06-21T10:40:19.126Z,10.21
2018-06-21T10:42:46.152Z,10.45
2018-06-21T10:45:13.194Z,10.48
2018-06-21T10:47:40.225Z,10.66
2018-06-21T10:50:07.261Z,10.76
2018-06-21T10:52:34.313Z,10.74
2018-06-21T10:55:01.369Z,10.87
2018-06-21T10:57:28.380Z,10.78
2018-06-21T10:59:55.425Z,10.94
2018-06-21T11:02:22.438Z,10.98
2018-06-21T11:04:49.464Z,10.98
2018-06-21T11:07:16.560Z,11.08
2018-06-21T11:09:43.938Z,11.13
2018-06-21T11:12:10.952Z,11.09
2018-06-21T11:14:37.961Z,11.11
2018-06-21T11:17:05.015Z,11.06
2018-06-21T11:19:32.063Z,11.11
2018-06-21T11:21:59.109Z,11.10
2018-06-21T11:24:29.351Z,11.14
2018-06-21T11:26:56.347Z,11.14
2018-06-21T11:29:23.597Z,11.11
2018-06-21T11:31:50.652Z,11.12
2018-06-21T11:34:17.838Z,11.12
2018-06-21T11:36:44.868Z,10.92
2018-06-21T11:39:11.901Z,10.89
2018-06-21T11:41:39.005Z,10.84
2018-06-21T11:44:06.280Z,11.02
2018-06-21T11:46:33.288Z,10.99
2018-06-21T11:49:00.335Z,11.03
2018-06-21T11:51:27.350Z,10.89
2018-06-21T11:53:54.371Z,11.10
2018-06-21T11:56:22.372Z,11.46
2018-06-21T11:58:49.397Z,11.45
2018-06-21T12:01:16.418Z,11.09
2018-06-21T12:03:43.503Z,11.07
2018-06-21T12:06:10.542Z,10.95
2018-06-21T12:08:37.545Z,11.33
2018-06-21T12:11:04.819Z,11.56
2018-06-21T12:13:33.356Z,11.68
2018-06-21T12:16:00.429Z,11.80
2018-06-21T12:18:27.704Z,11.71
2018-06-21T12:20:55.093Z,11.68
2018-06-21T12:23:22.209Z,12.00
2018-06-21T12:25:49.673Z,12.44
2018-06-21T12:28:16.797Z,12.72
2018-06-21T12:30:44.203Z,12.63
2018-06-21T12:33:11.524Z,12.32
2018-06-21T12:35:39.251Z,12.01
2018-06-21T12:38:06.310Z,11.81
2018-06-21T12:40:33.720Z,12.05
2018-06-21T12:43:01.097Z,11.95
2018-06-21T12:45:28.820Z,12.21
2018-06-21T12:47:55.816Z,12.26
2018-06-21T12:50:22.842Z,12.28
2018-06-21T12:52:51.214Z,12.38
2018-06-21T12:55:18.234Z,12.32
2018-06-21T12:57:45.845Z,12.11
2018-06-21T13:00:12.856Z,11.97
2018-06-21T13:02:40.313Z,11.75
2018-06-21T13:05:07.746Z,11.90
2018-06-21T13:07:34.883Z,12.14
2018-06-21T13:10:13.621Z,12.56
2018-06-21T13:12:53.201Z,12.44
2018-06-21T13:15:20.645Z,12.15
2018-06-21T13:17:47.656Z,11.81
2018-06-21T13:20:15.351Z,11.70
2018-06-21T13:22:42.378Z,11.80
2018-06-21T13:25:09.393Z,11.35
2018-06-21T13:27:37.416Z,11.37
2018-06-21T13:30:06.487Z,11.54
2018-06-21T13:32:34.003Z,11.94
2018-06-21T13:35:01.029Z,12.14
2018-06-21T13:37:28.753Z,12.41
2018-06-21T13:39:56.117Z,12.24
2018-06-21T13:42:23.134Z,12.23
2018-06-21T13:44:50.437Z,12.02
2018-06-21T13:47:17.926Z,12.01
2018-06-21T13:49:45.304Z,12.04
2018-06-21T13:52:12.449Z,11.89
2018-06-21T13:54:39.966Z,11.87
2018-06-21T13:57:06.949Z,11.70
2018-06-21T13:59:34.221Z,11.86
2018-06-21T14:02:01.398Z,12.05
2018-06-21T14:04:28.424Z,12.23
2018-06-21T14:06:55.754Z,12.50
2018-06-21T14:09:22.772Z,12.36
2018-06-21T14:11:50.180Z,12.97
2018-06-21T14:14:17.212Z,13.48
2018-06-21T14:16:44.233Z,13.01
2018-06-21T14:19:11.296Z,12.83
2018-06-21T14:21:39.083Z,12.64
2018-06-21T14:24:07.927Z,12.34
2018-06-21T14:26:36.340Z,12.22
2018-06-21T14:29:03.553Z,12.09
2018-06-21T14:31:30.730Z,12.00
2018-06-21T14:33:57.774Z,11.77
2018-06-21T14:36:24.783Z,11.41
2018-06-21T14:38:51.852Z,11.42
2018-06-21T14:41:18.873Z,11.77
2018-06-21T14:43:45.878Z,12.18
2018-06-21T14:46:13.330Z,12.72
2018-06-21T14:48:40.398Z,12.93
2018-06-21T14:51:07.641Z,12.96
2018-06-21T14:53:34.666Z,12.93
2018-06-21T14:56:01.690Z,12.88
2018-06-21T14:58:28.733Z,12.63
2018-06-21T15:00:55.878Z,12.00
2018-06-21T15:03:22.890Z,11.03
2018-06-21T15:05:50.005Z,10.50
2018-06-21T15:08:17.002Z,10.26
2018-06-21T15:10:44.075Z,10.15
2018-06-21T15:13:11.565Z,10.09
2018-06-21T15:15:38.553Z,10.27
2018-06-21T15:18:05.878Z,10.31
2018-06-21T15:20:33.228Z,10.90
2018-06-21T15:23:00.297Z,11.24
2018-06-21T15:25:27.322Z,11.59
2018-06-21T15:27:54.324Z,11.53
2018-06-21T15:30:21.453Z,11.63
2018-06-21T15:32:48.504Z,11.70
2018-06-21T15:35:15.554Z,11.71
2018-06-21T15:37:42.564Z,11.73
2018-06-21T15:40:09.640Z,11.62
2018-06-21T15:42:36.617Z,11.64
2018-06-21T15:45:03.773Z,11.79
2018-06-21T15:47:30.785Z,11.51
2018-06-21T15:49:57.793Z,11.45
2018-06-21T15:52:24.881Z,11.51
2018-06-21T15:54:52.166Z,11.83
2018-06-21T15:57:19.353Z,11.77
2018-06-21T15:59:46.265Z,11.71
2018-06-21T16:02:13.413Z,11.51
2018-06-21T16:04:40.546Z,11.52
2018-06-21T16:07:07.586Z,11.33
2018-06-21T16:09:34.609Z,11.21
2018-06-21T16:12:01.732Z,11.20
2018-06-21T16:14:28.787Z,11.19
2018-06-21T16:16:55.887Z,11.15
2018-06-21T16:19:22.909Z,11.09
2018-06-21T16:21:50.408Z,11.02
2018-06-21T16:24:17.513Z,11.02
2018-06-21T16:26:44.568Z,10.98
2018-06-21T16:29:11.564Z,11.06
2018-06-21T16:31:38.600Z,11.10
2018-06-21T16:34:05.634Z,11.07
2018-06-21T16:36:32.648Z,11.05
2018-06-21T16:38:59.901Z,11.03
2018-06-21T16:41:27.247Z,11.39
2018-06-21T16:43:54.221Z,11.70
2018-06-21T16:46:21.368Z,11.79
2018-06-21T16:48:48.437Z,11.98
2018-06-21T16:51:15.589Z,12.12
2018-06-21T16:53:42.672Z,12.02
2018-06-21T16:56:09.777Z,11.98
2018-06-21T16:58:36.871Z,12.01
2018-06-21T17:01:03.937Z,11.91
2018-06-21T17:03:31.013Z,11.77
2018-06-21T17:05:58.235Z,11.83
2018-06-21T17:08:25.270Z,11.61
2018-06-21T17:10:52.280Z,11.69
2018-06-21T17:13:19.781Z,11.58
2018-06-21T17:15:47.052Z,11.56
2018-06-21T17:18:14.268Z,11.55
2018-06-21T17:20:41.273Z,11.35
2018-06-21T17:23:08.550Z,11.36
2018-06-21T17:25:35.899Z,11.43
2018-06-21T17:28:03.457Z,11.47
2018-06-21T17:30:30.492Z,11.46
2018-06-21T17:32:57.595Z,11.45
2018-06-21T17:35:24.691Z,11.45
2018-06-21T17:37:51.705Z,11.41
2018-06-21T17:40:18.759Z,11.43
2018-06-21T17:42:45.770Z,11.63
2018-06-21T17:45:13.241Z,11.58
2018-06-21T17:47:40.805Z,11.55
2018-06-21T17:50:07.820Z,11.53
2018-06-21T17:52:34.972Z,11.53
2018-06-21T17:55:03.300Z,11.56
2018-06-21T17:57:31.224Z,11.59
2018-06-21T17:59:58.273Z,11.60
2018-06-21T18:02:26.029Z,11.53
2018-06-21T18:04:54.026Z,11.52
2018-06-21T18:07:21.094Z,11.49
2018-06-21T18:09:48.383Z,11.39
2018-06-21T18:12:15.380Z,11.39
2018-06-21T18:14:42.510Z,11.34
2018-06-21T18:17:09.699Z,11.20
2018-06-21T18:19:36.850Z,11.09
2018-06-21T18:22:03.892Z,10.99
2018-06-21T18:24:31.917Z,10.88
2018-06-21T18:26:59.219Z,10.84
2018-06-21T18:29:26.215Z,10.76
2018-06-21T18:31:53.347Z,10.81
2018-06-21T18:34:20.375Z,10.85
2018-06-21T18:36:47.409Z,10.93
2018-06-21T18:39:14.498Z,10.97
2018-06-21T18:41:42.540Z,10.91
2018-06-21T18:44:09.705Z,10.93
2018-06-21T18:46:37.190Z,10.90
2018-06-21T18:49:04.808Z,10.90
2018-06-21T18:51:31.884Z,10.81
2018-06-21T18:53:59.112Z,10.84
2018-06-21T18:56:26.313Z,10.76
2018-06-21T18:58:53.434Z,10.83
2018-06-21T19:01:20.481Z,10.78
2018-06-21T19:03:47.740Z,10.73
2018-06-21T19:06:20.580Z,10.68
2018-06-21T19:08:53.291Z,10.65
2018-06-21T19:11:26.607Z,10.69
2018-06-21T19:13:53.674Z,10.77
2018-06-21T19:16:20.741Z,10.80
2018-06-21T19:18:47.773Z,10.82
2018-06-21T19:21:14.877Z,10.83
2018-06-21T19:23:41.904Z,10.87
2018-06-21T19:26:08.910Z,10.86
2018-06-21T19:28:35.958Z,10.85
2018-06-21T19:31:03.246Z,10.95
2018-06-21T19:33:30.341Z,10.90
2018-06-21T19:35:57.473Z,10.78
2018-06-21T19:38:24.496Z,10.76
2018-06-21T19:40:51.576Z,10.77
2018-06-21T19:43:18.967Z,10.85
2018-06-21T19:45:46.054Z,10.89
2018-06-21T19:48:13.126Z,10.82
2018-06-21T19:50:40.163Z,10.80
2018-06-21T19:53:07.313Z,10.71
2018-06-21T19:55:34.405Z,10.65
2018-06-21T19:58:01.440Z,10.66
2018-06-21T20:00:28.598Z,10.59
2018-06-21T20:02:57.720Z,10.58
2018-06-21T20:05:24.906Z,10.47
2018-06-21T20:07:52.503Z,10.60
2018-06-21T20:10:19.715Z,10.50
2018-06-21T20:12:46.866Z,10.43
2018-06-21T20:15:14.010Z,10.29
2018-06-21T20:17:41.543Z,10.18
2018-06-21T20:20:14.390Z,10.10
2018-06-21T20:22:43.097Z,9.95
2018-06-21T20:25:10.200Z,9.96
2018-06-21T20:27:37.268Z,9.85
2018-06-21T20:30:05.703Z,9.86
2018-06-21T20:32:32.736Z,9.82
2018-06-21T20:34:59.787Z,9.80
2018-06-21T20:37:26.797Z,9.75
2018-06-21T20:39:53.910Z,9.71
2018-06-21T20:42:21.108Z,9.78
2018-06-21T20:44:49.876Z,9.73
2018-06-21T20:47:16.969Z,9.69
2018-06-21T20:49:44.135Z,9.71
2018-06-21T20:52:17.046Z,9.72
2018-06-21T20:54:44.099Z,9.68
2018-06-21T20:57:11.702Z,9.66
2018-06-21T20:59:38.993Z,9.62
2018-06-21T21:02:06.206Z,9.67
2018-06-21T21:04:42.493Z,9.68
2018-06-21T21:07:09.481Z,9.66
2018-06-21T21:09:36.627Z,9.68
2018-06-21T21:12:04.562Z,9.68
2018-06-21T21:14:31.644Z,9.49
2018-06-21T21:16:58.633Z,9.71
2018-06-21T21:19:25.631Z,9.69
2018-06-21T21:21:52.889Z,9.73
2018-06-21T21:24:20.072Z,9.84
2018-06-21T21:26:48.310Z,9.89
2018-06-21T21:29:15.333Z,9.76
2018-06-21T21:31:42.417Z,9.84
2018-06-21T21:34:09.475Z,9.72
2018-06-21T21:36:36.564Z,9.75
2018-06-21T21:39:05.381Z,9.70
2018-06-21T21:41:33.241Z,9.70
2018-06-21T21:44:00.283Z,9.77
2018-06-21T21:46:27.284Z,9.82
2018-06-21T21:48:54.749Z,9.76
2018-06-21T21:51:21.823Z,9.78
2018-06-21T21:53:48.819Z,9.79
2018-06-21T21:56:15.927Z,9.75
2018-06-21T21:58:42.938Z,9.77
2018-06-21T22:01:10.102Z,9.77
2018-06-21T22:03:37.113Z,9.67
2018-06-21T22:06:04.181Z,9.63
2018-06-21T22:08:31.261Z,9.68
2018-06-21T22:10:58.291Z,9.70
2018-06-21T22:13:25.301Z,9.65
2018-06-21T22:15:52.291Z,9.74
2018-06-21T22:18:19.289Z,9.82
2018-06-21T22:20:46.420Z,9.75
2018-06-21T22:23:13.566Z,9.72
2018-06-21T22:25:40.649Z,9.66
2018-06-21T22:28:07.717Z,9.77
2018-06-21T22:30:34.680Z,9.88
2018-06-21T22:33:01.689Z,9.78
2018-06-21T22:35:28.890Z,9.67
2018-06-21T22:37:55.874Z,9.75
2018-06-21T22:40:23.092Z,9.70
2018-06-21T22:42:50.088Z,9.72
2018-06-21T22:45:17.201Z,9.67
2018-06-21T22:47:44.473Z,9.71
2018-06-21T22:50:11.517Z,9.70
2018-06-21T22:52:38.909Z,9.72
2018-06-21T22:55:05.917Z,9.72
2018-06-21T22:57:32.905Z,9.61
2018-06-21T23:00:00.237Z,9.59
2018-06-21T23:02:27.479Z,9.59
2018-06-21T23:04:54.485Z,9.65
2018-06-21T23:07:21.505Z,9.63
2018-06-21T23:09:48.504Z,9.60
2018-06-21T23:12:15.514Z,9.55
2018-06-21T23:14:42.559Z,9.56
2018-06-21T23:17:09.763Z,9.55
2018-06-21T23:19:36.768Z,9.48
2018-06-21T23:22:03.768Z,9.50
2018-06-21T23:24:30.852Z,9.49
2018-06-21T23:26:57.923Z,9.54
2018-06-21T23:29:24.932Z,9.56
2018-06-21T23:31:51.987Z,9.52
2018-06-21T23:34:19.827Z,9.57
2018-06-21T23:36:46.884Z,9.53
2018-06-21T23:39:13.890Z,9.55
2018-06-21T23:41:42.077Z,9.50
2018-06-21T23:44:09.541Z,9.46
2018-06-21T23:46:36.766Z,9.44
2018-06-21T23:49:03.990Z,9.45
2018-06-21T23:51:31.065Z,9.43
2018-06-21T23:53:58.057Z,9.47
2018-06-21T23:56:25.274Z,9.40
2018-06-21T23:58:52.351Z,9.37
